Time;durP1;ratioP1;P1;durP2;ratioP2;P2;SDS_P1;SDS_P2;PMS_P1;PMS_P2;Temp;Humidity;BMP_temperature;BMP_pressure;BME280_temperature;BME280_humidity;BME280_pressure;Samples;Min_cycle;Max_cycle;Signal;HPM_P1;HPM_P2
2021/12/27 00:01:56;;;;;;;4.13;2.33;;;;;;;;;;5035411;28;20527;-76
2021/12/27 00:04:22;;;;;;;4.25;2.80;;;;;;;;;;5035357;28;20028;-78
2021/12/27 00:06:48;;;;;;;3.65;2.55;;;;;;;;;;5018286;28;20021;-79
2021/12/27 00:09:14;;;;;;;4.45;2.97;;;;;;;;;;5035921;28;20048;-78
2021/12/27 00:11:40;;;;;;;3.33;2.42;;;;;;;;;;5035667;28;20034;-78
2021/12/27 00:14:06;;;;;;;3.65;2.70;;;;;;;;;;5017588;28;20029;-78
2021/12/27 00:16:32;;;;;;;4.10;2.63;;;;;;;;;;5036144;28;20029;-78
2021/12/27 00:18:58;;;;;;;4.35;2.97;;;;;;;;;;5036751;28;20044;-77
2021/12/27 00:21:24;;;;;;;4.22;2.67;;;;;;;;;;5017337;28;20485;-78
2021/12/27 00:23:50;;;;;;;4.78;2.50;;;;;;;;;;5035395;28;20107;-79
2021/12/27 00:26:16;;;;;;;3.65;2.20;;;;;;;;;;5036394;28;20412;-79
2021/12/27 00:28:42;;;;;;;4.68;2.90;;;;;;;;;;5035325;28;20040;-78
2021/12/27 00:31:08;;;;;;;4.80;2.78;;;;;;;;;;5035485;28;20037;-77
2021/12/27 00:33:34;;;;;;;3.55;2.45;;;;;;;;;;5035162;28;20037;-76
2021/12/27 00:36:00;;;;;;;3.55;2.33;;;;;;;;;;5034856;28;20029;-77
2021/12/27 00:38:26;;;;;;;3.78;2.67;;;;;;;;;;5016307;28;20032;-77
2021/12/27 00:40:52;;;;;;;3.92;2.90;;;;;;;;;;5036031;28;20515;-78
2021/12/27 00:43:19;;;;;;;3.45;2.60;;;;;;;;;;5016701;28;20029;-77
2021/12/27 00:45:46;;;;;;;3.38;2.42;;;;;;;;;;5035140;28;20532;-77
2021/12/27 00:48:12;;;;;;;4.43;2.60;;;;;;;;;;5035393;28;20505;-77
2021/12/27 00:50:38;;;;;;;3.63;2.65;;;;;;;;;;5036058;28;20030;-77
2021/12/27 00:53:04;;;;;;;3.55;2.30;;;;;;;;;;5036174;28;20032;-78
2021/12/27 00:55:30;;;;;;;3.25;2.38;;;;;;;;;;5035424;28;20021;-77
2021/12/27 00:57:56;;;;;;;4.82;2.35;;;;;;;;;;5035544;28;20028;-77
2021/12/27 01:00:25;;;;;;;3.90;2.47;;;;;;;;;;5017696;28;20103;-75
2021/12/27 01:02:53;;;;;;;4.22;2.55;;;;;;;;;;5035015;28;20088;-78
2021/12/27 01:05:19;;;;;;;4.18;2.67;;;;;;;;;;5035120;28;20025;-77
2021/12/27 01:07:45;;;;;;;4.85;2.38;;;;;;;;;;5036255;28;20100;-77
2021/12/27 01:15:48;;;;;;;3.85;2.35;;;;;;;;;;5039078;28;20043;-77
2021/12/27 01:18:15;;;;;;;5.10;2.53;;;;;;;;;;5038225;28;20050;-77
2021/12/27 01:20:42;;;;;;;3.45;2.33;;;;;;;;;;5039203;28;20112;-76
2021/12/27 01:23:08;;;;;;;2.97;2.10;;;;;;;;;;5038690;28;20044;-77
2021/12/27 01:25:34;;;;;;;4.85;2.78;;;;;;;;;;5038300;28;20037;-77
2021/12/27 01:28:00;;;;;;;4.63;2.70;;;;;;;;;;5038218;28;20021;-77
2021/12/27 01:30:26;;;;;;;4.07;2.08;;;;;;;;;;5038843;28;20036;-77
2021/12/27 01:32:58;;;;;;;3.58;2.22;;;;;;;;;;5039481;28;20029;-77
2021/12/27 01:35:24;;;;;;;3.65;2.28;;;;;;;;;;5038073;28;20030;-77
2021/12/27 01:37:50;;;;;;;3.60;2.50;;;;;;;;;;5019752;28;20032;-77
2021/12/27 01:40:17;;;;;;;2.75;1.90;;;;;;;;;;5038050;28;20033;-77
2021/12/27 01:43:05;;;;;;;3.72;2.75;;;;;;;;;;5037733;28;20485;-78
2021/12/27 01:45:31;;;;;;;5.03;2.42;;;;;;;;;;5038170;28;20033;-77
2021/12/27 01:47:57;;;;;;;3.28;2.20;;;;;;;;;;5037530;28;20485;-76
2021/12/27 01:50:24;;;;;;;4.43;2.40;;;;;;;;;;5038093;28;20025;-78
2021/12/27 01:52:50;;;;;;;3.72;2.20;;;;;;;;;;5019608;28;20382;-77
2021/12/27 01:55:16;;;;;;;4.43;2.95;;;;;;;;;;5037345;28;20297;-77
2021/12/27 01:57:42;;;;;;;5.20;2.83;;;;;;;;;;5039002;28;20124;-76
2021/12/27 02:00:09;;;;;;;3.30;1.80;;;;;;;;;;5038444;28;20090;-77
2021/12/27 02:02:35;;;;;;;5.18;2.13;;;;;;;;;;5038118;28;20033;-78
2021/12/27 02:05:01;;;;;;;4.28;2.15;;;;;;;;;;5037750;28;20033;-77
2021/12/27 02:07:27;;;;;;;6.15;2.10;;;;;;;;;;5037705;28;20032;-77
2021/12/27 02:10:01;;;;;;;3.70;2.33;;;;;;;;;;5037627;28;20481;-77
2021/12/27 02:12:28;;;;;;;3.75;2.20;;;;;;;;;;5037435;28;20044;-77
2021/12/27 02:14:55;;;;;;;4.05;2.20;;;;;;;;;;5038023;28;20033;-77
2021/12/27 02:17:21;;;;;;;4.32;2.35;;;;;;;;;;5038160;28;20083;-77
2021/12/27 02:19:47;;;;;;;2.90;1.77;;;;;;;;;;5043529;28;20034;-77
2021/12/27 02:22:13;;;;;;;6.93;2.42;;;;;;;;;;5032672;28;20025;-77
2021/12/27 02:24:40;;;;;;;3.53;2.13;;;;;;;;;;5045015;28;20031;-77
2021/12/27 02:27:07;;;;;;;3.53;1.83;;;;;;;;;;5041142;28;20029;-76
2021/12/27 02:29:33;;;;;;;3.70;2.20;;;;;;;;;;5038374;28;20420;-77
2021/12/27 02:31:59;;;;;;;4.22;2.08;;;;;;;;;;5037229;28;20119;-78
2021/12/27 02:34:25;;;;;;;3.33;2.15;;;;;;;;;;5036766;28;20033;-75
2021/12/27 02:36:51;;;;;;;3.83;2.20;;;;;;;;;;5038918;28;20100;-77
2021/12/27 02:39:18;;;;;;;3.78;2.03;;;;;;;;;;5036835;28;20017;-77
2021/12/27 02:41:44;;;;;;;3.22;1.88;;;;;;;;;;5036759;28;20253;-76
2021/12/27 02:44:10;;;;;;;4.38;2.28;;;;;;;;;;5019728;28;20033;-76
2021/12/27 02:46:36;;;;;;;3.80;2.33;;;;;;;;;;5037103;28;20505;-77
2021/12/27 02:49:03;;;;;;;4.00;2.30;;;;;;;;;;5036771;28;20067;-77
2021/12/27 02:51:30;;;;;;;4.15;1.98;;;;;;;;;;5018591;28;20030;-77
2021/12/27 02:53:56;;;;;;;3.42;2.00;;;;;;;;;;5036893;28;20036;-76
2021/12/27 02:56:22;;;;;;;5.07;2.03;;;;;;;;;;5037570;28;20021;-77
2021/12/27 02:58:48;;;;;;;3.10;2.00;;;;;;;;;;5018912;28;20033;-77
2021/12/27 03:01:24;;;;;;;3.63;1.98;;;;;;;;;;5036500;28;20025;-78
2021/12/27 03:03:50;;;;;;;;;;;;;;;;;;5019425;28;20031;-77
2021/12/27 03:06:16;;;;;;;5.55;2.38;;;;;;;;;;5036321;28;20185;-76
2021/12/27 03:08:43;;;;;;;4.13;1.90;;;;;;;;;;5037105;28;20484;-77
2021/12/27 03:11:10;;;;;;;3.00;2.05;;;;;;;;;;5036805;28;20079;-77
2021/12/27 03:13:37;;;;;;;3.72;2.00;;;;;;;;;;5036296;28;20421;-76
2021/12/27 03:16:07;;;;;;;2.67;2.03;;;;;;;;;;5036835;28;20108;-77
2021/12/27 03:18:34;;;;;;;3.33;2.00;;;;;;;;;;5035823;28;20017;-77
2021/12/27 03:21:01;;;;;;;3.53;2.15;;;;;;;;;;5036811;28;20417;-77
2021/12/27 03:23:27;;;;;;;3.85;2.00;;;;;;;;;;5038887;28;20108;-77
2021/12/27 03:25:53;;;;;;;3.22;2.10;;;;;;;;;;5036299;28;20548;-77
2021/12/27 03:28:19;;;;;;;4.38;2.55;;;;;;;;;;5038584;28;20512;-76
2021/12/27 03:30:46;;;;;;;4.97;2.30;;;;;;;;;;5036416;28;20037;-77
2021/12/27 03:33:12;;;;;;;3.72;2.00;;;;;;;;;;5035872;28;20048;-76
2021/12/27 03:35:41;;;;;;;4.15;2.30;;;;;;;;;;5037093;28;20038;-77
2021/12/27 03:38:11;;;;;;;5.28;2.22;;;;;;;;;;5018672;28;20040;-77
2021/12/27 03:40:38;;;;;;;6.43;2.13;;;;;;;;;;5037625;28;20089;-77
2021/12/27 03:43:04;;;;;;;3.38;2.20;;;;;;;;;;5037238;28;20067;-77
2021/12/27 03:45:34;;;;;;;3.20;2.05;;;;;;;;;;5036132;28;20510;-75
2021/12/27 03:48:00;;;;;;;3.60;2.03;;;;;;;;;;5035674;28;20032;-77
2021/12/27 03:50:27;;;;;;;4.18;2.53;;;;;;;;;;5035593;28;20509;-78
2021/12/27 03:52:54;;;;;;;4.13;2.30;;;;;;;;;;5036292;28;20048;-77
2021/12/27 03:55:21;;;;;;;3.42;1.98;;;;;;;;;;5035323;28;20029;-78
2021/12/27 03:57:55;;;;;;;3.95;2.40;;;;;;;;;;5035296;28;20055;-78
2021/12/27 04:02:50;;;;;;;4.63;2.47;;;;;;;;;;5035900;28;20370;-76
2021/12/27 04:05:16;;;;;;;2.88;2.05;;;;;;;;;;5017386;28;20033;-78
2021/12/27 04:07:48;;;;;;;2.40;1.55;;;;;;;;;;5037528;28;20021;-77
2021/12/27 04:10:15;;;;;;;4.05;2.72;;;;;;;;;;5036192;28;20025;-77
2021/12/27 04:12:41;;;;;;;4.15;2.33;;;;;;;;;;5036215;28;20029;-76
2021/12/27 04:15:09;;;;;;;4.78;2.15;;;;;;;;;;5035899;28;20040;-77
2021/12/27 04:17:36;;;;;;;3.28;1.90;;;;;;;;;;5035479;28;20033;-77
2021/12/27 04:20:02;;;;;;;4.50;2.33;;;;;;;;;;5035571;28;20037;-77
2021/12/27 04:22:33;;;;;;;3.85;2.38;;;;;;;;;;5035485;28;21705;-77
2021/12/27 04:24:59;;;;;;;3.83;2.40;;;;;;;;;;5017325;28;20129;-76
2021/12/27 04:27:25;;;;;;;3.92;2.33;;;;;;;;;;5036403;28;20103;-76
2021/12/27 04:29:51;;;;;;;3.53;2.35;;;;;;;;;;5036653;28;20028;-76
2021/12/27 04:32:17;;;;;;;3.08;2.05;;;;;;;;;;5034825;28;20091;-77
2021/12/27 04:34:43;;;;;;;5.47;2.70;;;;;;;;;;5035498;28;20126;-76
2021/12/27 04:37:09;;;;;;;3.80;2.22;;;;;;;;;;5036059;28;20108;-76
2021/12/27 04:39:35;;;;;;;3.50;2.40;;;;;;;;;;5035467;28;20055;-76
2021/12/27 04:42:01;;;;;;;4.47;2.30;;;;;;;;;;5035492;28;20028;-76
2021/12/27 04:44:27;;;;;;;4.28;2.42;;;;;;;;;;5020081;28;20507;-77
2021/12/27 04:46:53;;;;;;;3.90;2.40;;;;;;;;;;5041915;28;20044;-77
2021/12/27 04:49:20;;;;;;;3.90;2.60;;;;;;;;;;5039242;28;20029;-76
2021/12/27 04:51:46;;;;;;;4.28;2.65;;;;;;;;;;5021313;28;20412;-77
2021/12/27 04:54:12;;;;;;;4.80;2.67;;;;;;;;;;5037913;28;20056;-77
2021/12/27 04:56:38;;;;;;;4.82;2.35;;;;;;;;;;5039658;28;20412;-76
2021/12/27 04:59:04;;;;;;;4.85;2.78;;;;;;;;;;5039061;28;20021;-78
2021/12/27 05:01:30;;;;;;;4.03;2.70;;;;;;;;;;5024491;28;20554;-76
2021/12/27 05:03:56;;;;;;;4.25;2.78;;;;;;;;;;5039082;28;20025;-77
2021/12/27 05:06:22;;;;;;;4.65;2.88;;;;;;;;;;5039418;28;20413;-76
2021/12/27 05:08:53;;;;;;;3.85;2.55;;;;;;;;;;5041104;28;20017;-76
2021/12/27 05:11:19;;;;;;;6.70;2.20;;;;;;;;;;5041176;28;20038;-77
2021/12/27 05:13:45;;;;;;;3.58;2.33;;;;;;;;;;5020481;28;20086;-77
2021/12/27 05:16:11;;;;;;;4.10;2.40;;;;;;;;;;5039486;28;20025;-75
2021/12/27 05:18:37;;;;;;;3.50;2.22;;;;;;;;;;5041791;28;20615;-77
2021/12/27 05:21:03;;;;;;;6.45;3.08;;;;;;;;;;5038751;28;20029;-77
2021/12/27 05:23:31;;;;;;;4.28;2.60;;;;;;;;;;5020627;28;20045;-76
2021/12/27 05:25:57;;;;;;;3.75;2.50;;;;;;;;;;5021973;28;20037;-77
2021/12/27 05:28:23;;;;;;;4.93;2.63;;;;;;;;;;5039040;28;20104;-77
2021/12/27 05:30:51;;;;;;;3.03;2.17;;;;;;;;;;5038357;28;20057;-78
2021/12/27 05:33:17;;;;;;;3.92;2.60;;;;;;;;;;5021578;28;20033;-76
2021/12/27 05:35:43;;;;;;;4.35;2.50;;;;;;;;;;5034963;28;20032;-79
2021/12/27 05:38:09;;;;;;;3.13;1.77;;;;;;;;;;5020795;28;20036;-79
2021/12/27 05:40:36;;;;;;;4.38;2.28;;;;;;;;;;5051391;28;20023;-79
2021/12/27 05:43:02;;;;;;;5.35;2.85;;;;;;;;;;5053676;28;20025;-81
2021/12/27 05:45:28;;;;;;;3.85;2.28;;;;;;;;;;5053245;28;20476;-82
2021/12/27 05:47:55;;;;;;;4.10;2.75;;;;;;;;;;5053507;28;20108;-82
2021/12/27 05:50:21;;;;;;;5.35;2.38;;;;;;;;;;5033381;28;20040;-79
2021/12/27 05:52:47;;;;;;;3.90;2.00;;;;;;;;;;5053412;28;20041;-79
2021/12/27 05:55:13;;;;;;;4.00;2.60;;;;;;;;;;5052365;28;20099;-80
2021/12/27 05:57:40;;;;;;;5.80;2.42;;;;;;;;;;5053705;28;20021;-78
2021/12/27 06:00:07;;;;;;;3.33;2.30;;;;;;;;;;5017973;28;20029;-76
2021/12/27 06:02:33;;;;;;;5.30;2.50;;;;;;;;;;5033984;28;20029;-82
2021/12/27 06:04:59;;;;;;;3.63;2.20;;;;;;;;;;5035297;28;20025;-80
2021/12/27 06:07:25;;;;;;;3.05;2.10;;;;;;;;;;5043110;28;20021;-77
2021/12/27 06:09:51;;;;;;;3.47;2.00;;;;;;;;;;5020287;28;20036;-79
2021/12/27 06:12:17;;;;;;;2.92;1.77;;;;;;;;;;5020915;28;20389;-77
2021/12/27 06:14:43;;;;;;;3.92;2.08;;;;;;;;;;5015314;28;20032;-79
2021/12/27 06:17:09;;;;;;;3.90;2.03;;;;;;;;;;5033358;28;20030;-77
2021/12/27 06:19:35;;;;;;;3.50;2.17;;;;;;;;;;5042365;28;20021;-78
2021/12/27 06:22:02;;;;;;;4.47;2.10;;;;;;;;;;5032950;28;20037;-79
2021/12/27 06:24:28;;;;;;;3.67;1.75;;;;;;;;;;5032509;28;20436;-78
2021/12/27 06:26:54;;;;;;;4.30;1.88;;;;;;;;;;5032940;28;20029;-80
2021/12/27 06:29:20;;;;;;;3.65;1.88;;;;;;;;;;5014776;28;20036;-81
2021/12/27 06:31:46;;;;;;;4.25;1.80;;;;;;;;;;5043960;28;20029;-80
2021/12/27 06:34:13;;;;;;;4.57;1.98;;;;;;;;;;5037793;28;20116;-82
2021/12/27 06:36:39;;;;;;;5.00;2.10;;;;;;;;;;5030475;28;20020;-83
2021/12/27 06:39:05;;;;;;;3.97;1.77;;;;;;;;;;5043247;28;20029;-83
2021/12/27 06:41:32;;;;;;;2.78;1.75;;;;;;;;;;5014576;28;20033;-82
2021/12/27 06:43:58;;;;;;;3.83;1.98;;;;;;;;;;5046129;28;20086;-82
2021/12/27 06:46:24;;;;;;;2.70;1.45;;;;;;;;;;5034100;28;20485;-81
2021/12/27 06:48:50;;;;;;;3.65;1.70;;;;;;;;;;5039506;28;20032;-79
2021/12/27 06:51:16;;;;;;;4.18;1.77;;;;;;;;;;5051547;28;20079;-79
2021/12/27 06:53:42;;;;;;;5.72;1.60;;;;;;;;;;5034245;28;20029;-79
2021/12/27 06:56:08;;;;;;;3.42;1.67;;;;;;;;;;5034728;28;20025;-83
2021/12/27 06:58:34;;;;;;;3.45;1.50;;;;;;;;;;5051953;28;20061;-83
2021/12/27 07:01:00;;;;;;;4.20;1.70;;;;;;;;;;5052244;28;20465;-81
2021/12/27 07:03:26;;;;;;;3.28;1.50;;;;;;;;;;5033986;28;20419;-86
2021/12/27 07:05:52;;;;;;;3.05;1.63;;;;;;;;;;5051507;28;20029;-83
2021/12/27 07:08:19;;;;;;;7.88;2.00;;;;;;;;;;5051577;28;20025;-84
2021/12/27 07:10:45;;;;;;;3.25;1.60;;;;;;;;;;5034114;28;20037;-84
2021/12/27 07:13:12;;;;;;;2.25;1.40;;;;;;;;;;5032637;28;20128;-81
2021/12/27 07:15:41;;;;;;;2.58;1.50;;;;;;;;;;5052066;28;20033;-82
2021/12/27 07:18:11;;;;;;;4.90;1.50;;;;;;;;;;5051556;28;20025;-83
2021/12/27 07:20:37;;;;;;;2.85;1.52;;;;;;;;;;5051976;28;20048;-84
2021/12/27 07:23:05;;;;;;;3.88;1.60;;;;;;;;;;5033817;28;20021;-84
2021/12/27 07:25:31;;;;;;;2.58;1.60;;;;;;;;;;5033675;28;20033;-83
2021/12/27 07:27:57;;;;;;;3.88;1.70;;;;;;;;;;5051808;28;20060;-83
2021/12/27 07:30:23;;;;;;;5.90;1.75;;;;;;;;;;5051383;28;20029;-84
2021/12/27 07:32:49;;;;;;;5.22;1.58;;;;;;;;;;5051593;28;20629;-82
2021/12/27 07:35:15;;;;;;;4.20;1.35;;;;;;;;;;5033426;28;20063;-84
2021/12/27 07:37:41;;;;;;;6.22;1.60;;;;;;;;;;5051639;28;20040;-79
2021/12/27 07:40:08;;;;;;;3.42;1.52;;;;;;;;;;5033950;28;20499;-84
2021/12/27 07:42:34;;;;;;;2.67;1.45;;;;;;;;;;5033283;28;20515;-84
2021/12/27 07:45:01;;;;;;;3.97;1.60;;;;;;;;;;5047710;28;20512;-85
2021/12/27 07:47:27;;;;;;;5.32;1.75;;;;;;;;;;5048295;28;20025;-83
2021/12/27 07:49:53;;;;;;;3.05;1.60;;;;;;;;;;5046392;28;20096;-85
2021/12/27 07:52:19;;;;;;;2.67;1.40;;;;;;;;;;5022508;28;20021;-86
2021/12/27 07:54:45;;;;;;;3.05;1.50;;;;;;;;;;5051538;28;20029;-86
2021/12/27 07:57:12;;;;;;;3.17;1.52;;;;;;;;;;5039174;28;20025;-82
2021/12/27 07:59:38;;;;;;;2.67;1.30;;;;;;;;;;5020710;28;20486;-87
2021/12/27 08:02:04;;;;;;;3.70;1.30;;;;;;;;;;5041606;28;20535;-81
2021/12/27 08:04:30;;;;;;;3.13;1.77;;;;;;;;;;5039370;28;20017;-85
2021/12/27 08:06:56;;;;;;;5.03;2.22;;;;;;;;;;5040902;28;20029;-84
2021/12/27 08:09:25;;;;;;;2.85;1.17;;;;;;;;;;5038735;28;20044;-83
2021/12/27 08:11:51;;;;;;;4.55;1.60;;;;;;;;;;5040015;28;20033;-85
2021/12/27 08:14:17;;;;;;;5.28;1.80;;;;;;;;;;5040510;28;20523;-83
2021/12/27 08:16:43;;;;;;;6.75;1.73;;;;;;;;;;5021158;28;20013;-83
2021/12/27 08:19:09;;;;;;;3.40;1.70;;;;;;;;;;5043190;28;20025;-79
2021/12/27 08:21:37;;;;;;;4.13;1.75;;;;;;;;;;5043960;28;20032;-80
2021/12/27 08:24:03;;;;;;;5.65;2.10;;;;;;;;;;5038634;28;20365;-84
2021/12/27 08:26:29;;;;;;;6.63;1.60;;;;;;;;;;5022641;28;20040;-86
2021/12/27 08:28:56;;;;;;;3.03;1.45;;;;;;;;;;5035451;28;20025;-86
2021/12/27 08:31:22;;;;;;;4.47;1.80;;;;;;;;;;5035175;28;20035;-85
2021/12/27 08:33:48;;;;;;;2.90;1.58;;;;;;;;;;5038284;28;20034;-83
2021/12/27 08:36:14;;;;;;;2.30;1.40;;;;;;;;;;5043416;28;20027;-85
2021/12/27 08:38:41;;;;;;;4.40;1.85;;;;;;;;;;5044836;28;20389;-85
2021/12/27 08:41:07;;;;;;;3.92;1.60;;;;;;;;;;5052337;28;20387;-86
2021/12/27 08:43:33;;;;;;;2.47;1.35;;;;;;;;;;5037166;28;20024;-86
2021/12/27 08:45:59;;;;;;;4.80;1.58;;;;;;;;;;5045333;28;20041;-84
2021/12/27 08:48:26;;;;;;;4.68;1.50;;;;;;;;;;5047374;28;20024;-85
2021/12/27 08:50:51;;;;;;;3.92;1.42;;;;;;;;;;5054858;28;20491;-86
2021/12/27 08:53:17;;;;;;;3.45;1.30;;;;;;;;;;5036748;28;20025;-84
2021/12/27 08:55:43;;;;;;;2.28;1.20;;;;;;;;;;5048013;28;20107;-83
2021/12/27 08:58:09;;;;;;;4.60;1.23;;;;;;;;;;5053458;28;20025;-84
2021/12/27 09:00:35;;;;;;;2.55;1.33;;;;;;;;;;5036806;28;20022;-84
2021/12/27 09:03:02;;;;;;;1.48;1.00;;;;;;;;;;5034670;28;20068;-86
2021/12/27 09:05:28;;;;;;;3.50;1.55;;;;;;;;;;5017090;28;20030;-85
2021/12/27 09:07:54;;;;;;;2.95;1.63;;;;;;;;;;5035007;28;20018;-86
2021/12/27 09:10:20;;;;;;;2.40;1.35;;;;;;;;;;5034606;28;20408;-81
2021/12/27 09:12:46;;;;;;;3.00;1.50;;;;;;;;;;5041969;28;20037;-86
2021/12/27 09:15:14;;;;;;;2.97;1.42;;;;;;;;;;5054503;28;20032;-85
2021/12/27 09:17:40;;;;;;;2.58;1.40;;;;;;;;;;5034342;28;20048;-87
2021/12/27 09:20:07;;;;;;;2.58;1.33;;;;;;;;;;5044180;28;20033;-83
2021/12/27 09:22:33;;;;;;;3.13;1.30;;;;;;;;;;5023285;28;20025;-83
2021/12/27 09:24:59;;;;;;;2.60;1.27;;;;;;;;;;5020947;28;20029;-84
2021/12/27 09:27:25;;;;;;;2.05;1.27;;;;;;;;;;5023212;28;20071;-85
2021/12/27 09:29:51;;;;;;;3.17;1.38;;;;;;;;;;5033119;28;20038;-85
2021/12/27 09:32:17;;;;;;;2.25;1.10;;;;;;;;;;5016597;28;20049;-86
2021/12/27 09:34:44;;;;;;;2.35;1.30;;;;;;;;;;5034252;28;20044;-84
2021/12/27 09:37:10;;;;;;;4.82;1.10;;;;;;;;;;5016722;28;20079;-85
2021/12/27 09:39:36;;;;;;;3.35;1.20;;;;;;;;;;5034247;28;20030;-85
2021/12/27 09:42:03;;;;;;;4.55;1.52;;;;;;;;;;5034041;28;20033;-84
2021/12/27 09:44:29;;;;;;;2.63;1.10;;;;;;;;;;5033419;28;20026;-83
2021/12/27 09:46:55;;;;;;;3.03;1.00;;;;;;;;;;5016066;28;20033;-85
2021/12/27 09:49:26;;;;;;;2.03;1.00;;;;;;;;;;5015702;28;20390;-85
2021/12/27 09:51:52;;;;;;;2.80;1.17;;;;;;;;;;5015745;28;20033;-85
2021/12/27 09:54:18;;;;;;;2.28;1.00;;;;;;;;;;5033579;28;20084;-84
2021/12/27 09:56:44;;;;;;;2.40;1.20;;;;;;;;;;5033717;28;20029;-83
2021/12/27 09:59:10;;;;;;;2.22;1.13;;;;;;;;;;5033894;28;20029;-84
2021/12/27 10:01:36;;;;;;;1.95;1.08;;;;;;;;;;5015824;28;20029;-84
2021/12/27 10:04:03;;;;;;;2.08;0.95;;;;;;;;;;5015816;28;20025;-85
2021/12/27 10:06:30;;;;;;;2.35;1.20;;;;;;;;;;5015359;28;20022;-85
2021/12/27 10:08:57;;;;;;;2.03;1.10;;;;;;;;;;5015739;28;20022;-85
2021/12/27 10:11:32;;;;;;;2.42;1.10;;;;;;;;;;5033072;28;20113;-84
2021/12/27 10:14:08;;;;;;;4.20;1.08;;;;;;;;;;5015387;28;20079;-84
2021/12/27 10:16:38;;;;;;;2.08;1.00;;;;;;;;;;5033033;28;20030;-83
2021/12/27 10:19:07;;;;;;;3.00;0.93;;;;;;;;;;5033360;28;20474;-84
2021/12/27 10:21:34;;;;;;;1.67;0.85;;;;;;;;;;5015168;28;20032;-82
2021/12/27 10:24:04;;;;;;;1.65;0.95;;;;;;;;;;5015363;28;20084;-82
2021/12/27 10:26:31;;;;;;;2.15;0.90;;;;;;;;;;5033020;28;20108;-84
2021/12/27 10:29:27;;;;;;;3.15;1.00;;;;;;;;;;5015249;28;20525;-84
2021/12/27 10:31:53;;;;;;;1.65;0.93;;;;;;;;;;5020294;28;20045;-84
2021/12/27 10:34:19;;;;;;;2.47;1.27;;;;;;;;;;5015104;28;20034;-83
2021/12/27 10:37:04;;;;;;;3.08;1.10;;;;;;;;;;5039411;28;20021;-84
2021/12/27 10:39:44;;;;;;;1.38;0.80;;;;;;;;;;5024415;28;20075;-87
2021/12/27 10:42:11;;;;;;;2.17;0.88;;;;;;;;;;5030686;28;20484;-86
2021/12/27 10:44:38;;;;;;;2.00;1.17;;;;;;;;;;5042861;28;20021;-83
2021/12/27 10:47:05;;;;;;;2.30;0.90;;;;;;;;;;5043229;28;20025;-86
2021/12/27 10:49:50;;;;;;;3.03;1.13;;;;;;;;;;5042658;28;20429;-86
2021/12/27 10:52:15;;;;;;;2.60;1.00;;;;;;;;;;5025465;28;20037;-83
2021/12/27 10:54:42;;;;;;;4.07;1.10;;;;;;;;;;5040591;28;20029;-85
2021/12/27 10:57:08;;;;;;;1.10;0.70;;;;;;;;;;5033275;28;20548;-83
2021/12/27 10:59:34;;;;;;;2.03;0.90;;;;;;;;;;5032665;28;20524;-86
2021/12/27 11:02:10;;;;;;;1.77;0.82;;;;;;;;;;5033055;28;20102;-86
2021/12/27 11:04:36;;;;;;;1.98;1.00;;;;;;;;;;5041755;28;20083;-85
2021/12/27 11:07:03;;;;;;;2.25;0.80;;;;;;;;;;5039069;28;20014;-81
2021/12/27 11:09:29;;;;;;;3.05;0.80;;;;;;;;;;5032747;28;20100;-88
2021/12/27 11:11:55;;;;;;;1.70;0.70;;;;;;;;;;5033197;28;20038;-86
2021/12/27 11:14:21;;;;;;;2.13;1.05;;;;;;;;;;5032903;28;20048;-87
2021/12/27 11:16:48;;;;;;;3.05;0.80;;;;;;;;;;5032888;28;20025;-88
2021/12/27 11:19:14;;;;;;;1.50;0.75;;;;;;;;;;5032723;28;20060;-88
2021/12/27 11:21:41;;;;;;;1.75;0.80;;;;;;;;;;5041306;28;20021;-87
2021/12/27 11:24:08;;;;;;;2.72;1.02;;;;;;;;;;5040101;28;20079;-82
2021/12/27 11:26:36;;;;;;;1.27;0.60;;;;;;;;;;5034853;28;20056;-83
2021/12/27 11:29:22;;;;;;;1.73;0.80;;;;;;;;;;5040935;28;20067;-89
2021/12/27 11:31:49;;;;;;;2.10;0.85;;;;;;;;;;5033222;28;20033;-88
2021/12/27 11:34:16;;;;;;;2.08;0.82;;;;;;;;;;5052171;28;20070;-87
2021/12/27 11:36:42;;;;;;;1.38;0.68;;;;;;;;;;5052377;28;20028;-87
2021/12/27 11:39:28;;;;;;;1.77;0.90;;;;;;;;;;5040433;28;20029;-89
2021/12/27 11:42:03;;;;;;;2.00;0.90;;;;;;;;;;5034078;28;20485;-90
2021/12/27 11:44:35;;;;;;;1.33;0.70;;;;;;;;;;5045141;28;20052;-90
2021/12/27 11:47:01;;;;;;;1.55;0.75;;;;;;;;;;5032377;28;20572;-89
2021/12/27 11:49:34;;;;;;;2.03;0.80;;;;;;;;;;5032195;28;20060;-89
2021/12/27 11:52:19;;;;;;;2.38;0.70;;;;;;;;;;5031827;28;20120;-88
2021/12/27 11:55:04;;;;;;;1.67;0.70;;;;;;;;;;5040010;28;20032;-79
2021/12/27 11:57:39;;;;;;;1.67;0.82;;;;;;;;;;5049487;28;20102;-86
2021/12/27 12:00:23;;;;;;;1.83;0.75;;;;;;;;;;5039689;28;20477;-86
2021/12/27 12:02:49;;;;;;;2.72;0.95;;;;;;;;;;5037463;28;20018;-89
2021/12/27 12:05:34;;;;;;;2.72;0.85;;;;;;;;;;5047812;28;20085;-86
2021/12/27 12:08:00;;;;;;;2.35;0.85;;;;;;;;;;5049461;28;20024;-90
2021/12/27 12:10:26;;;;;;;3.30;1.00;;;;;;;;;;5038348;28;20025;-91
2021/12/27 12:13:19;;;;;;;2.53;0.80;;;;;;;;;;5051976;28;20503;-92
2021/12/27 12:15:55;;;;;;;1.75;0.60;;;;;;;;;;5049079;28;20029;-91
2021/12/27 12:18:21;;;;;;;3.63;0.80;;;;;;;;;;5032273;28;20033;-92
2021/12/27 12:20:47;;;;;;;1.77;0.98;;;;;;;;;;5041433;28;20021;-91
2021/12/27 12:23:13;;;;;;;2.45;0.90;;;;;;;;;;5040101;28;20033;-91
2021/12/27 12:25:39;;;;;;;4.65;0.80;;;;;;;;;;5031656;28;20108;-84
2021/12/27 12:28:07;;;;;;;3.40;0.95;;;;;;;;;;5051557;28;20485;-88
2021/12/27 12:30:40;;;;;;;3.08;1.20;;;;;;;;;;5042679;28;20028;-88
2021/12/27 12:33:08;;;;;;;4.55;1.40;;;;;;;;;;5038877;28;20041;-87
2021/12/27 12:35:40;;;;;;;4.03;1.00;;;;;;;;;;5042759;28;20025;-88
2021/12/27 12:38:18;;;;;;;3.15;1.23;;;;;;;;;;5040189;28;20109;-87
2021/12/27 12:40:45;;;;;;;3.28;1.63;;;;;;;;;;5041698;28;20023;-88
2021/12/27 12:43:11;;;;;;;3.38;1.00;;;;;;;;;;5024811;28;20071;-82
2021/12/27 12:45:38;;;;;;;1.95;0.88;;;;;;;;;;5043626;28;20444;-85
2021/12/27 12:48:05;;;;;;;1.42;0.82;;;;;;;;;;5040982;28;20024;-88
2021/12/27 12:50:31;;;;;;;2.47;0.80;;;;;;;;;;5042043;28;20839;-88
2021/12/27 12:52:58;;;;;;;5.38;0.95;;;;;;;;;;5041562;28;20120;-89
2021/12/27 12:55:26;;;;;;;2.90;0.88;;;;;;;;;;5037042;28;20021;-88
2021/12/27 12:57:52;;;;;;;2.38;0.90;;;;;;;;;;5030988;28;20044;-85
2021/12/27 13:00:22;;;;;;;2.53;1.10;;;;;;;;;;5038500;28;20044;-88
2021/12/27 13:02:48;;;;;;;2.88;0.90;;;;;;;;;;5031608;28;20037;-89
2021/12/27 13:05:15;;;;;;;3.83;1.23;;;;;;;;;;5034257;28;20071;-86
2021/12/27 13:07:45;;;;;;;2.75;0.85;;;;;;;;;;5035410;28;20029;-80
2021/12/27 13:10:18;;;;;;;4.00;1.02;;;;;;;;;;5017507;28;20027;-77
2021/12/27 13:12:44;;;;;;;1.55;0.90;;;;;;;;;;5034564;28;20172;-84
2021/12/27 13:15:12;;;;;;;3.65;1.00;;;;;;;;;;5035027;28;20377;-86
2021/12/27 13:17:38;;;;;;;3.08;1.20;;;;;;;;;;5034911;28;20029;-87
2021/12/27 13:20:06;;;;;;;3.30;1.00;;;;;;;;;;5034498;28;20076;-86
2021/12/27 13:22:39;;;;;;;2.17;1.00;;;;;;;;;;5034393;28;20036;-84
2021/12/27 13:25:05;;;;;;;2.50;1.00;;;;;;;;;;5034584;28;20108;-86
2021/12/27 13:27:31;;;;;;;4.32;1.00;;;;;;;;;;5034440;28;20109;-88
2021/12/27 13:30:07;;;;;;;2.45;1.08;;;;;;;;;;5034619;28;20056;-84
2021/12/27 13:32:34;;;;;;;3.20;0.95;;;;;;;;;;5042729;28;20434;-84
2021/12/27 13:35:00;;;;;;;2.75;0.85;;;;;;;;;;5042397;28;20079;-82
2021/12/27 13:37:26;;;;;;;2.63;1.20;;;;;;;;;;5041729;28;20018;-86
2021/12/27 13:40:03;;;;;;;2.50;0.88;;;;;;;;;;5041531;28;20029;-86
2021/12/27 13:42:29;;;;;;;2.78;1.23;;;;;;;;;;5034283;28;20387;-88
2021/12/27 13:45:06;;;;;;;3.92;1.27;;;;;;;;;;5034222;28;20040;-89
2021/12/27 13:47:32;;;;;;;2.42;1.15;;;;;;;;;;5034129;28;20033;-86
2021/12/27 13:49:58;;;;;;;3.00;1.00;;;;;;;;;;5034258;28;20469;-87
2021/12/27 13:52:24;;;;;;;2.13;1.10;;;;;;;;;;5033770;28;20523;-82
2021/12/27 13:54:54;;;;;;;3.40;1.20;;;;;;;;;;5034214;28;20053;-87
2021/12/27 13:57:31;;;;;;;2.22;1.02;;;;;;;;;;5034316;28;20052;-89
2021/12/27 13:59:57;;;;;;;3.55;1.65;;;;;;;;;;5034228;28;20048;-86
2021/12/27 14:02:23;;;;;;;2.63;0.98;;;;;;;;;;5034277;28;20025;-86
2021/12/27 14:04:59;;;;;;;3.05;0.75;;;;;;;;;;5034025;28;20400;-85
2021/12/27 14:07:25;;;;;;;3.25;1.13;;;;;;;;;;5033899;28;20036;-86
2021/12/27 14:09:51;;;;;;;2.25;0.93;;;;;;;;;;5034081;28;20018;-86
2021/12/27 14:12:22;;;;;;;3.47;1.25;;;;;;;;;;5033944;28;20042;-86
2021/12/27 14:14:49;;;;;;;2.28;0.95;;;;;;;;;;5033390;28;20381;-84
2021/12/27 14:17:19;;;;;;;3.80;1.00;;;;;;;;;;5032419;28;20030;-81
2021/12/27 14:19:46;;;;;;;2.50;1.08;;;;;;;;;;5033221;28;20123;-84
2021/12/27 14:22:16;;;;;;;2.22;0.85;;;;;;;;;;5032951;28;20029;-83
2021/12/27 14:24:42;;;;;;;2.95;1.13;;;;;;;;;;5039748;28;20026;-83
2021/12/27 14:27:20;;;;;;;2.03;0.85;;;;;;;;;;5024791;28;20025;-85
2021/12/27 14:30:04;;;;;;;2.78;0.95;;;;;;;;;;5042269;28;20013;-86
2021/12/27 14:32:31;;;;;;;2.25;1.10;;;;;;;;;;5042252;28;20163;-82
2021/12/27 14:34:57;;;;;;;4.82;1.30;;;;;;;;;;5041713;28;20096;-84
2021/12/27 14:37:23;;;;;;;2.22;1.00;;;;;;;;;;5040075;28;20025;-84
2021/12/27 14:39:50;;;;;;;1.90;0.88;;;;;;;;;;5041976;28;20086;-84
2021/12/27 14:42:17;;;;;;;2.03;1.02;;;;;;;;;;5041194;28;20481;-84
2021/12/27 14:44:51;;;;;;;2.95;1.35;;;;;;;;;;5039988;28;20033;-84
2021/12/27 14:47:19;;;;;;;2.53;0.87;;;;;;;;;;5040701;28;20100;-85
2021/12/27 14:49:46;;;;;;;1.80;0.90;;;;;;;;;;5040689;28;20374;-81
2021/12/27 14:52:12;;;;;;;2.90;1.10;;;;;;;;;;5042512;28;20049;-84
2021/12/27 14:54:40;;;;;;;2.08;0.85;;;;;;;;;;5040362;28;20493;-83